createdAt,value
2018-03-06T00:00:21.739Z,0.90
2018-03-06T00:01:21.744Z,0.88
2018-03-06T00:02:21.753Z,0.88
2018-03-06T00:03:21.759Z,0.88
2018-03-06T00:04:21.776Z,0.87
2018-03-06T00:05:21.765Z,0.85
2018-03-06T00:06:21.771Z,0.85
2018-03-06T00:07:21.760Z,0.84
2018-03-06T00:08:21.770Z,0.84
2018-03-06T00:09:21.773Z,0.81
2018-03-06T00:10:21.781Z,0.81
2018-03-06T00:11:21.782Z,0.81
2018-03-06T00:12:21.793Z,0.80
2018-03-06T00:13:21.804Z,0.80
2018-03-06T00:14:21.834Z,0.80
2018-03-06T00:15:21.798Z,0.78
2018-03-06T00:16:21.816Z,0.78
2018-03-06T00:17:21.814Z,0.80
2018-03-06T00:18:21.815Z,0.78
2018-03-06T00:19:21.832Z,0.80
2018-03-06T00:20:21.825Z,0.80
2018-03-06T00:21:21.828Z,0.78
2018-03-06T00:22:21.839Z,0.76
2018-03-06T00:23:21.834Z,0.76
2018-03-06T00:24:21.850Z,0.74
2018-03-06T00:25:21.843Z,0.74
2018-03-06T00:26:21.888Z,0.74
2018-03-06T00:27:21.860Z,0.73
2018-03-06T00:28:21.852Z,0.72
2018-03-06T00:29:21.859Z,0.70
2018-03-06T00:30:21.865Z,0.69
2018-03-06T00:31:21.876Z,0.69
2018-03-06T00:32:21.882Z,0.67
2018-03-06T00:33:21.884Z,0.67
2018-03-06T00:34:21.882Z,0.66
2018-03-06T00:35:21.881Z,0.64
2018-03-06T00:36:21.888Z,0.64
2018-03-06T00:37:21.894Z,0.63
2018-03-06T00:38:21.901Z,0.62
2018-03-06T00:39:21.895Z,0.60
2018-03-06T00:40:21.911Z,0.56
2018-03-06T00:41:21.917Z,0.55
2018-03-06T00:42:21.920Z,0.55
2018-03-06T00:43:21.918Z,0.53
2018-03-06T00:44:21.940Z,0.51
2018-03-06T00:45:21.938Z,0.51
2018-03-06T00:46:21.930Z,0.48
2018-03-06T00:47:21.937Z,0.45
2018-03-06T00:48:21.935Z,0.45
2018-03-06T00:49:21.971Z,0.43
2018-03-06T00:50:21.972Z,0.41
2018-03-06T00:51:21.942Z,0.40
2018-03-06T00:52:21.997Z,0.37
2018-03-06T00:53:21.956Z,0.35
2018-03-06T00:54:21.965Z,0.33
2018-03-06T00:55:21.968Z,0.32
2018-03-06T00:56:21.973Z,0.30
2018-03-06T00:57:21.971Z,0.29
2018-03-06T00:58:21.981Z,0.27
2018-03-06T00:59:21.984Z,0.26
2018-03-06T01:00:21.993Z,0.25
2018-03-06T01:01:21.996Z,0.25
2018-03-06T01:02:23.066Z,0.23
2018-03-06T01:03:22.011Z,0.22
2018-03-06T01:04:21.996Z,0.22
2018-03-06T01:05:22.017Z,0.20
2018-03-06T01:06:22.013Z,0.22
2018-03-06T01:07:22.016Z,0.20
2018-03-06T01:08:22.042Z,0.18
2018-03-06T01:09:22.029Z,0.17
2018-03-06T01:10:22.025Z,0.15
2018-03-06T01:11:22.028Z,0.15
2018-03-06T01:12:22.048Z,0.11
2018-03-06T01:13:22.041Z,0.12
2018-03-06T01:14:22.056Z,0.11
2018-03-06T01:15:22.056Z,0.09
2018-03-06T01:16:22.062Z,0.08
2018-03-06T01:17:22.052Z,0.07
2018-03-06T01:18:22.064Z,0.07
2018-03-06T01:19:22.064Z,0.04
2018-03-06T01:20:22.072Z,0.00
2018-03-06T01:21:22.068Z,0.00
2018-03-06T01:22:22.081Z,0.00
2018-03-06T01:23:22.079Z,-0.01
2018-03-06T01:24:22.086Z,-0.01
2018-03-06T01:25:22.083Z,-0.04
2018-03-06T01:26:22.096Z,-0.06
2018-03-06T01:27:22.100Z,-0.07
2018-03-06T01:28:24.112Z,-0.10
2018-03-06T01:29:22.102Z,-0.09
2018-03-06T01:30:22.117Z,-0.11
2018-03-06T01:31:22.108Z,-0.11
2018-03-06T01:32:22.110Z,-0.11
2018-03-06T01:33:22.115Z,-0.13
2018-03-06T01:34:22.137Z,-0.14
2018-03-06T01:35:22.126Z,-0.14
2018-03-06T01:36:22.122Z,-0.14
2018-03-06T01:37:22.128Z,-0.16
2018-03-06T01:38:22.133Z,-0.16
2018-03-06T01:39:22.136Z,-0.17
2018-03-06T01:40:22.146Z,-0.17
2018-03-06T01:41:22.144Z,-0.17
2018-03-06T01:42:22.152Z,-0.17
2018-03-06T01:43:22.151Z,-0.17
2018-03-06T01:44:22.171Z,-0.20
2018-03-06T01:45:22.169Z,-0.20
2018-03-06T01:46:22.188Z,-0.21
2018-03-06T01:47:22.171Z,-0.22
2018-03-06T01:48:22.203Z,-0.22
2018-03-06T01:49:22.186Z,-0.24
2018-03-06T01:50:22.197Z,-0.24
2018-03-06T01:51:22.189Z,-0.25
2018-03-06T01:52:22.196Z,-0.25
2018-03-06T01:53:22.188Z,-0.25
2018-03-06T01:54:22.206Z,-0.27
2018-03-06T01:55:22.195Z,-0.27
2018-03-06T01:56:22.205Z,-0.27
2018-03-06T01:57:22.205Z,-0.27
2018-03-06T01:58:22.221Z,-0.28
2018-03-06T01:59:22.215Z,-0.28
2018-03-06T02:00:22.226Z,-0.29
2018-03-06T02:01:22.228Z,-0.29
2018-03-06T02:02:22.226Z,-0.29
2018-03-06T02:03:22.232Z,-0.31
2018-03-06T02:04:22.244Z,-0.31
2018-03-06T02:05:22.239Z,-0.32
2018-03-06T02:06:22.253Z,-0.34
2018-03-06T02:07:22.240Z,-0.34
2018-03-06T02:08:22.254Z,-0.35
2018-03-06T02:09:22.252Z,-0.38
2018-03-06T02:10:22.266Z,-0.39
2018-03-06T02:11:22.275Z,-0.40
2018-03-06T02:12:22.259Z,-0.42
2018-03-06T02:13:22.260Z,-0.43
2018-03-06T02:14:22.275Z,-0.45
2018-03-06T02:15:22.272Z,-0.45
2018-03-06T02:16:22.279Z,-0.46
2018-03-06T02:17:22.286Z,-0.47
2018-03-06T02:18:22.292Z,-0.49
2018-03-06T02:19:22.291Z,-0.50
2018-03-06T02:20:22.294Z,-0.52
2018-03-06T02:21:22.299Z,-0.52
2018-03-06T02:22:22.306Z,-0.52
2018-03-06T02:23:22.314Z,-0.53
2018-03-06T02:24:22.314Z,-0.53
2018-03-06T02:25:22.325Z,-0.53
2018-03-06T02:26:22.325Z,-0.52
2018-03-06T02:27:22.328Z,-0.53
2018-03-06T02:28:22.331Z,-0.57
2018-03-06T02:29:22.337Z,-0.57
2018-03-06T02:30:22.336Z,-0.55
2018-03-06T02:31:22.331Z,-0.55
2018-03-06T02:32:22.342Z,-0.53
2018-03-06T02:33:22.339Z,-0.55
2018-03-06T02:34:22.354Z,-0.55
2018-03-06T02:35:22.344Z,-0.55
2018-03-06T02:36:22.367Z,-0.53
2018-03-06T02:37:22.365Z,-0.55
2018-03-06T02:38:22.360Z,-0.53
2018-03-06T02:39:22.364Z,-0.53
2018-03-06T02:40:22.367Z,-0.52
2018-03-06T02:41:22.365Z,-0.55
2018-03-06T02:42:22.376Z,-0.55
2018-03-06T02:43:22.377Z,-0.55
2018-03-06T02:44:22.386Z,-0.53
2018-03-06T02:45:22.378Z,-0.52
2018-03-06T02:46:23.410Z,-0.50
2018-03-06T02:47:22.400Z,-0.47
2018-03-06T02:48:22.396Z,-0.46
2018-03-06T02:49:22.396Z,-0.46
2018-03-06T02:50:22.404Z,-0.45
2018-03-06T02:51:22.410Z,-0.47
2018-03-06T02:52:22.416Z,-0.46
2018-03-06T02:53:22.411Z,-0.47
2018-03-06T02:54:22.425Z,-0.47
2018-03-06T02:55:22.426Z,-0.47
2018-03-06T02:56:23.433Z,-0.50
2018-03-06T02:57:22.430Z,-0.49
2018-03-06T02:58:22.438Z,-0.50
2018-03-06T02:59:22.435Z,-0.52
2018-03-06T03:00:22.443Z,-0.53
2018-03-06T03:01:22.439Z,-0.53
2018-03-06T03:02:22.455Z,-0.55
2018-03-06T03:03:22.450Z,-0.58
2018-03-06T03:04:22.465Z,-0.58
2018-03-06T03:05:22.452Z,-0.58
2018-03-06T03:06:22.460Z,-0.58
2018-03-06T03:07:22.465Z,-0.60
2018-03-06T03:08:22.471Z,-0.61
2018-03-06T03:09:22.469Z,-0.61
2018-03-06T03:10:22.473Z,-0.61
2018-03-06T03:11:22.477Z,-0.60
2018-03-06T03:12:22.485Z,-0.58
2018-03-06T03:13:22.478Z,-0.60
2018-03-06T03:14:22.491Z,-0.60
2018-03-06T03:15:22.489Z,-0.58
2018-03-06T03:16:22.497Z,-0.60
2018-03-06T03:17:22.499Z,-0.60
2018-03-06T03:18:22.505Z,-0.58
2018-03-06T03:19:22.507Z,-0.61
2018-03-06T03:20:22.524Z,-0.63
2018-03-06T03:21:22.511Z,-0.63
2018-03-06T03:22:22.517Z,-0.64
2018-03-06T03:23:22.520Z,-0.66
2018-03-06T03:24:22.527Z,-0.67
2018-03-06T03:25:22.518Z,-0.67
2018-03-06T03:26:22.527Z,-0.67
2018-03-06T03:27:22.531Z,-0.67
2018-03-06T03:28:22.550Z,-0.70
2018-03-06T03:29:22.536Z,-0.68
2018-03-06T03:30:22.553Z,-0.68
2018-03-06T03:31:22.542Z,-0.67
2018-03-06T03:32:22.550Z,-0.64
2018-03-06T03:33:22.553Z,-0.64
2018-03-06T03:34:22.557Z,-0.64
2018-03-06T03:35:22.554Z,-0.64
2018-03-06T03:36:22.573Z,-0.64
2018-03-06T03:37:22.565Z,-0.63
2018-03-06T03:38:22.577Z,-0.63
2018-03-06T03:39:22.571Z,-0.63
2018-03-06T03:40:22.583Z,-0.63
2018-03-06T03:41:22.579Z,-0.63
2018-03-06T03:42:22.614Z,-0.63
2018-03-06T03:43:22.584Z,-0.63
2018-03-06T03:44:22.590Z,-0.63
2018-03-06T03:45:22.592Z,-0.61
2018-03-06T03:46:22.611Z,-0.64
2018-03-06T03:47:22.594Z,-0.66
2018-03-06T03:48:22.601Z,-0.66
2018-03-06T03:49:22.603Z,-0.67
2018-03-06T03:50:22.614Z,-0.66
2018-03-06T03:51:22.611Z,-0.67
2018-03-06T03:52:22.643Z,-0.68
2018-03-06T03:53:22.614Z,-0.66
2018-03-06T03:54:22.632Z,-0.66
2018-03-06T03:55:22.626Z,-0.67
2018-03-06T03:56:22.647Z,-0.67
2018-03-06T03:57:22.635Z,-0.68
2018-03-06T03:58:22.636Z,-0.70
2018-03-06T03:59:22.640Z,-0.68
2018-03-06T04:00:22.647Z,-0.68
2018-03-06T04:01:22.647Z,-0.70
2018-03-06T04:02:22.652Z,-0.68
2018-03-06T04:03:22.649Z,-0.68
2018-03-06T04:04:22.656Z,-0.70
2018-03-06T04:05:22.655Z,-0.70
2018-03-06T04:06:22.662Z,-0.70
2018-03-06T04:07:22.676Z,-0.70
2018-03-06T04:08:22.681Z,-0.71
2018-03-06T04:09:22.674Z,-0.73
2018-03-06T04:10:22.678Z,-0.73
2018-03-06T04:11:22.676Z,-0.73
2018-03-06T04:12:22.686Z,-0.73
2018-03-06T04:13:22.690Z,-0.73
2018-03-06T04:14:22.698Z,-0.73
2018-03-06T04:15:22.684Z,-0.75
2018-03-06T04:16:22.698Z,-0.75
2018-03-06T04:17:22.698Z,-0.76
2018-03-06T04:18:22.702Z,-0.76
2018-03-06T04:19:22.707Z,-0.78
2018-03-06T04:20:22.708Z,-0.79
2018-03-06T04:21:22.716Z,-0.82
2018-03-06T04:22:22.721Z,-0.84
2018-03-06T04:23:22.714Z,-0.85
2018-03-06T04:24:22.727Z,-0.86
2018-03-06T04:25:22.718Z,-0.90
2018-03-06T04:26:22.726Z,-0.92
2018-03-06T04:27:22.725Z,-0.92
2018-03-06T04:28:22.764Z,-0.92
2018-03-06T04:29:22.734Z,-0.94
2018-03-06T04:30:22.739Z,-0.94
2018-03-06T04:31:22.738Z,-0.95
2018-03-06T04:32:22.743Z,-0.95
2018-03-06T04:33:22.748Z,-0.97
2018-03-06T04:34:22.759Z,-0.98
2018-03-06T04:35:22.755Z,-1.00
2018-03-06T04:36:22.772Z,-0.98
2018-03-06T04:37:22.757Z,-1.00
2018-03-06T04:38:22.764Z,-0.98
2018-03-06T04:39:22.781Z,-1.00
2018-03-06T04:40:22.773Z,-1.01
2018-03-06T04:41:22.801Z,-1.03
2018-03-06T04:42:22.783Z,-1.03
2018-03-06T04:43:22.775Z,-1.04
2018-03-06T04:44:22.791Z,-1.03
2018-03-06T04:45:22.815Z,-1.03
2018-03-06T04:46:22.790Z,-1.03
2018-03-06T04:47:22.788Z,-1.03
2018-03-06T04:48:22.797Z,-1.01
2018-03-06T04:49:22.809Z,-1.01
2018-03-06T04:50:23.805Z,-1.03
2018-03-06T04:51:22.799Z,-1.03
2018-03-06T04:52:23.824Z,-1.01
2018-03-06T04:53:22.806Z,-1.01
2018-03-06T04:54:22.813Z,-1.03
2018-03-06T04:55:22.817Z,-1.01
2018-03-06T04:56:22.836Z,-1.01
2018-03-06T04:57:22.826Z,-1.01
2018-03-06T04:58:22.836Z,-1.01
2018-03-06T04:59:22.824Z,-1.01
2018-03-06T05:00:22.833Z,-1.03
2018-03-06T05:01:22.826Z,-1.01
2018-03-06T05:02:22.834Z,-1.00
2018-03-06T05:03:22.847Z,-1.00
2018-03-06T05:04:22.851Z,-1.03
2018-03-06T05:05:22.847Z,-1.03
2018-03-06T05:06:22.860Z,-1.03
2018-03-06T05:07:22.845Z,-1.03
2018-03-06T05:08:22.853Z,-1.01
2018-03-06T05:09:22.857Z,-1.04
2018-03-06T05:10:22.872Z,-1.03
2018-03-06T05:11:22.873Z,-1.03
2018-03-06T05:12:22.878Z,-1.03
2018-03-06T05:13:22.873Z,-1.04
2018-03-06T05:14:22.887Z,-1.04
2018-03-06T05:15:22.870Z,-1.03
2018-03-06T05:16:22.878Z,-1.05
2018-03-06T05:17:22.884Z,-1.05
2018-03-06T05:18:22.892Z,-1.05
2018-03-06T05:19:22.886Z,-1.07
2018-03-06T05:20:22.898Z,-1.05
2018-03-06T05:21:22.891Z,-1.05
2018-03-06T05:22:22.903Z,-1.05
2018-03-06T05:23:22.903Z,-1.04
2018-03-06T05:24:22.904Z,-1.04
2018-03-06T05:25:22.907Z,-1.05
2018-03-06T05:26:22.918Z,-1.05
2018-03-06T05:27:22.909Z,-1.05
2018-03-06T05:28:22.928Z,-1.07
2018-03-06T05:29:22.948Z,-1.04
2018-03-06T05:30:22.922Z,-1.07
2018-03-06T05:31:22.923Z,-1.05
2018-03-06T05:32:22.939Z,-1.05
2018-03-06T05:33:22.935Z,-1.04
2018-03-06T05:34:22.956Z,-1.04
2018-03-06T05:35:22.940Z,-1.04
2018-03-06T05:36:22.947Z,-1.04
2018-03-06T05:37:22.944Z,-1.04
2018-03-06T05:38:22.944Z,-1.03
2018-03-06T05:39:22.949Z,-1.03
2018-03-06T05:40:22.957Z,-1.03
2018-03-06T05:41:22.949Z,-1.03
2018-03-06T05:42:22.965Z,-1.01
2018-03-06T05:43:22.955Z,-1.00
2018-03-06T05:44:22.976Z,-0.98
2018-03-06T05:45:22.962Z,-0.97
2018-03-06T05:46:22.973Z,-0.94
2018-03-06T05:47:22.970Z,-0.90
2018-03-06T05:48:22.973Z,-0.85
2018-03-06T05:49:22.972Z,-0.84
2018-03-06T05:50:24.005Z,-0.81
2018-03-06T05:51:22.986Z,-0.78
2018-03-06T05:52:23.006Z,-0.75
2018-03-06T05:53:22.992Z,-0.70
2018-03-06T05:54:23.001Z,-0.67
2018-03-06T05:55:23.010Z,-0.66
2018-03-06T05:56:23.039Z,-0.63
2018-03-06T05:57:22.996Z,-0.60
2018-03-06T05:58:23.003Z,-0.55
2018-03-06T05:59:23.003Z,-0.52
2018-03-06T06:00:23.038Z,-0.49
2018-03-06T06:01:23.011Z,-0.49
2018-03-06T06:02:23.018Z,-0.47
2018-03-06T06:03:23.018Z,-0.46
2018-03-06T06:04:23.035Z,-0.45
2018-03-06T06:05:23.029Z,-0.45
2018-03-06T06:06:23.038Z,-0.43
2018-03-06T06:07:23.032Z,-0.43
2018-03-06T06:08:23.053Z,-0.42
2018-03-06T06:09:23.033Z,-0.40
2018-03-06T06:10:23.041Z,-0.39
2018-03-06T06:11:23.040Z,-0.40
2018-03-06T06:12:23.053Z,-0.39
2018-03-06T06:13:23.043Z,-0.38
2018-03-06T06:14:23.052Z,-0.38
2018-03-06T06:15:23.050Z,-0.34
2018-03-06T06:16:23.051Z,-0.35
2018-03-06T06:17:23.051Z,-0.34
2018-03-06T06:18:23.069Z,-0.31
2018-03-06T06:19:23.053Z,-0.28
2018-03-06T06:20:23.072Z,-0.25
2018-03-06T06:21:23.117Z,-0.24
2018-03-06T06:22:23.077Z,-0.17
2018-03-06T06:23:23.080Z,-0.16
2018-03-06T06:24:23.087Z,-0.11
2018-03-06T06:25:23.079Z,-0.07
2018-03-06T06:26:23.100Z,-0.04
2018-03-06T06:27:23.089Z,0.00
2018-03-06T06:28:23.134Z,0.05
2018-03-06T06:29:23.102Z,0.08
2018-03-06T06:30:24.181Z,0.09
2018-03-06T06:31:23.092Z,0.12
2018-03-06T06:32:23.144Z,0.15
2018-03-06T06:33:23.098Z,0.20
2018-03-06T06:34:23.163Z,0.25
2018-03-06T06:35:23.102Z,0.27
2018-03-06T06:36:23.171Z,0.33
2018-03-06T06:37:23.106Z,0.36
2018-03-06T06:38:23.184Z,0.41
2018-03-06T06:39:23.110Z,0.44
2018-03-06T06:40:23.136Z,0.48
2018-03-06T06:41:23.122Z,0.53
2018-03-06T06:42:23.147Z,0.59
2018-03-06T06:43:23.140Z,0.62
2018-03-06T06:44:23.167Z,0.66
2018-03-06T06:45:23.138Z,0.69
2018-03-06T06:46:23.180Z,0.72
2018-03-06T06:47:23.140Z,0.73
2018-03-06T06:48:23.198Z,0.76
2018-03-06T06:49:23.142Z,0.80
2018-03-06T06:50:23.204Z,0.81
2018-03-06T06:51:23.151Z,0.84
2018-03-06T06:52:23.226Z,0.85
2018-03-06T06:53:23.158Z,0.88
2018-03-06T06:54:23.240Z,0.91
2018-03-06T06:55:23.155Z,0.91
2018-03-06T06:56:23.305Z,0.96
2018-03-06T06:57:23.172Z,0.98
2018-03-06T06:58:23.279Z,0.98
2018-03-06T06:59:23.168Z,1.00
2018-03-06T07:00:23.277Z,1.00
2018-03-06T07:01:23.180Z,1.02
2018-03-06T07:02:23.293Z,1.03
2018-03-06T07:03:23.177Z,1.03
2018-03-06T07:04:23.217Z,1.05
2018-03-06T07:05:23.197Z,1.06
2018-03-06T07:06:23.222Z,1.06
2018-03-06T07:07:23.190Z,1.09
2018-03-06T07:08:23.228Z,1.10
2018-03-06T07:09:23.218Z,1.10
2018-03-06T07:10:23.265Z,1.16
2018-03-06T07:11:23.228Z,1.18
2018-03-06T07:12:24.286Z,1.21
2018-03-06T07:13:23.208Z,1.24
2018-03-06T07:14:23.273Z,1.26
2018-03-06T07:15:23.223Z,1.28
2018-03-06T07:16:23.288Z,1.31
2018-03-06T07:17:23.217Z,1.34
2018-03-06T07:18:23.290Z,1.35
2018-03-06T07:19:23.222Z,1.38
2018-03-06T07:20:23.313Z,1.39
2018-03-06T07:21:23.263Z,1.41
2018-03-06T07:22:23.323Z,1.44
2018-03-06T07:23:23.241Z,1.46
2018-03-06T07:24:23.375Z,1.49
2018-03-06T07:25:23.281Z,1.53
2018-03-06T07:26:23.349Z,1.57
2018-03-06T07:27:23.238Z,1.60
2018-03-06T07:28:23.259Z,1.66
2018-03-06T07:29:23.248Z,1.67
2018-03-06T07:30:23.276Z,1.71
2018-03-06T07:31:23.252Z,1.73
2018-03-06T07:32:23.292Z,1.74
2018-03-06T07:33:23.266Z,1.74
2018-03-06T07:34:23.304Z,1.73
2018-03-06T07:35:23.373Z,1.73
2018-03-06T07:36:24.338Z,1.71
2018-03-06T07:37:23.266Z,1.71
2018-03-06T07:38:23.330Z,1.71
2018-03-06T07:39:23.279Z,1.67
2018-03-06T07:40:23.345Z,1.66
2018-03-06T07:41:23.292Z,1.64
2018-03-06T07:42:23.361Z,1.64
2018-03-06T07:43:23.291Z,1.63
2018-03-06T07:44:24.398Z,1.63
2018-03-06T07:45:23.307Z,1.63
2018-03-06T07:46:23.382Z,1.66
2018-03-06T07:47:23.298Z,1.66
2018-03-06T07:48:23.396Z,1.67
2018-03-06T07:49:23.312Z,1.67
2018-03-06T07:50:23.413Z,1.69
2018-03-06T07:51:23.309Z,1.71
2018-03-06T07:52:24.467Z,1.71
2018-03-06T07:53:23.325Z,1.71
2018-03-06T07:54:23.466Z,1.73
2018-03-06T07:55:23.313Z,1.75
2018-03-06T07:56:23.362Z,1.77
2018-03-06T07:57:23.423Z,1.80
2018-03-06T07:58:23.334Z,1.84
2018-03-06T07:59:23.436Z,1.84
2018-03-06T08:00:23.337Z,1.87
2018-03-06T08:01:23.345Z,1.89
2018-03-06T08:02:23.332Z,1.93
2018-03-06T08:03:23.437Z,1.95
2018-03-06T08:04:23.341Z,1.97
2018-03-06T08:05:23.373Z,2.00
2018-03-06T08:06:23.364Z,2.00
2018-03-06T08:07:23.349Z,2.03
2018-03-06T08:08:23.390Z,2.04
2018-03-06T08:09:23.354Z,2.06
2018-03-06T08:10:23.370Z,2.10
2018-03-06T08:11:23.412Z,2.10
2018-03-06T08:12:23.365Z,2.12
2018-03-06T08:13:23.426Z,2.15
2018-03-06T08:14:23.362Z,2.18
2018-03-06T08:15:23.437Z,2.18
2018-03-06T08:16:23.376Z,2.22
2018-03-06T08:17:23.386Z,2.28
2018-03-06T08:18:23.391Z,2.30
2018-03-06T08:19:23.466Z,2.33
2018-03-06T08:20:23.409Z,2.37
2018-03-06T08:21:23.387Z,2.43
2018-03-06T08:22:23.479Z,2.50
2018-03-06T08:23:23.393Z,2.54
2018-03-06T08:24:23.497Z,2.60
2018-03-06T08:25:23.394Z,2.66
2018-03-06T08:26:23.523Z,2.73
2018-03-06T08:27:23.405Z,2.82
2018-03-06T08:28:23.423Z,2.91
2018-03-06T08:29:23.406Z,3.00
2018-03-06T08:30:23.434Z,3.11
2018-03-06T08:31:23.428Z,3.18
2018-03-06T08:32:23.426Z,3.26
2018-03-06T08:33:23.451Z,3.33
2018-03-06T08:34:44.423Z,3.37
2018-03-06T08:35:23.425Z,3.45
2018-03-06T08:36:23.432Z,3.51
2018-03-06T08:37:23.472Z,3.56
2018-03-06T08:38:23.432Z,3.64
2018-03-06T08:39:23.847Z,3.70
2018-03-06T08:40:23.442Z,3.80
2018-03-06T08:41:23.509Z,3.88
2018-03-06T08:42:23.464Z,3.99
2018-03-06T08:43:23.521Z,4.08
2018-03-06T08:44:23.482Z,4.18
2018-03-06T08:45:23.535Z,4.27
2018-03-06T08:46:23.453Z,4.38
2018-03-06T08:47:23.563Z,4.48
2018-03-06T08:48:23.457Z,4.57
2018-03-06T08:49:23.561Z,4.67
2018-03-06T08:50:23.474Z,4.78
2018-03-06T08:51:24.587Z,4.88
2018-03-06T08:52:23.486Z,4.96
2018-03-06T08:53:24.502Z,5.03
2018-03-06T08:54:23.478Z,5.11
2018-03-06T08:55:23.641Z,5.14
2018-03-06T08:56:23.502Z,5.21
2018-03-06T08:57:23.544Z,5.24
2018-03-06T08:58:23.492Z,5.29
2018-03-06T08:59:23.535Z,5.32
2018-03-06T09:00:23.520Z,5.34
2018-03-06T09:01:23.503Z,5.39
2018-03-06T09:02:23.537Z,5.39
2018-03-06T09:03:23.499Z,5.43
2018-03-06T09:04:23.544Z,5.47
2018-03-06T09:05:23.556Z,5.50
2018-03-06T09:06:23.558Z,5.54
2018-03-06T09:07:23.516Z,5.57
2018-03-06T09:08:24.594Z,5.61
2018-03-06T09:09:23.519Z,5.62
2018-03-06T09:10:23.581Z,5.65
2018-03-06T09:11:23.528Z,5.69
2018-03-06T09:12:23.597Z,5.73
2018-03-06T09:13:23.530Z,5.75
2018-03-06T09:14:23.609Z,5.79
2018-03-06T09:15:23.534Z,5.84
2018-03-06T09:16:23.622Z,5.87
2018-03-06T09:17:23.553Z,5.90
2018-03-06T09:18:23.632Z,5.93
2018-03-06T09:19:23.553Z,5.97
2018-03-06T09:20:23.650Z,6.02
2018-03-06T09:21:23.561Z,6.08
2018-03-06T09:22:23.664Z,6.15
2018-03-06T09:23:23.563Z,6.24
2018-03-06T09:24:23.741Z,6.32
2018-03-06T09:25:23.564Z,6.42
2018-03-06T09:26:23.584Z,6.50
2018-03-06T09:27:23.581Z,6.57
2018-03-06T09:28:23.596Z,6.65
2018-03-06T09:29:23.601Z,6.73
2018-03-06T09:30:23.582Z,6.79
2018-03-06T09:31:23.659Z,6.86
2018-03-06T09:32:23.589Z,6.92
2018-03-06T09:33:23.625Z,6.99
2018-03-06T09:34:23.600Z,7.04
2018-03-06T09:35:23.649Z,7.10
2018-03-06T09:36:23.607Z,7.16
2018-03-06T09:37:24.678Z,7.24
2018-03-06T09:38:23.612Z,7.29
2018-03-06T09:39:23.669Z,7.36
2018-03-06T09:40:23.622Z,7.42
2018-03-06T09:41:23.686Z,7.47
2018-03-06T09:42:23.638Z,7.55
2018-03-06T09:43:23.698Z,7.58
2018-03-06T09:44:23.624Z,7.61
2018-03-06T09:45:23.705Z,7.64
2018-03-06T09:46:23.629Z,7.66
2018-03-06T09:47:23.637Z,7.68
2018-03-06T09:48:23.642Z,7.68
2018-03-06T09:49:23.730Z,7.66
2018-03-06T09:50:23.643Z,7.69
2018-03-06T09:51:24.667Z,7.69
2018-03-06T09:52:23.674Z,7.69
2018-03-06T09:53:23.758Z,7.71
2018-03-06T09:54:23.660Z,7.71
2018-03-06T09:55:23.666Z,7.73
2018-03-06T09:56:23.664Z,7.73
2018-03-06T09:57:23.796Z,7.74
2018-03-06T09:58:23.696Z,7.74
2018-03-06T09:59:23.693Z,7.76
2018-03-06T10:00:23.678Z,7.78
2018-03-06T10:01:23.709Z,7.80
2018-03-06T10:02:23.684Z,7.83
2018-03-06T10:03:23.724Z,7.86
2018-03-06T10:04:23.688Z,7.88
2018-03-06T10:05:23.732Z,7.92
2018-03-06T10:06:23.693Z,7.95
2018-03-06T10:07:23.745Z,7.96
2018-03-06T10:08:23.705Z,8.04
2018-03-06T10:09:23.770Z,8.06
2018-03-06T10:10:23.718Z,8.12
2018-03-06T10:11:23.776Z,8.17
2018-03-06T10:12:23.708Z,8.24
2018-03-06T10:13:23.784Z,8.29
2018-03-06T10:14:23.721Z,8.37
2018-03-06T10:15:23.797Z,8.41
2018-03-06T10:16:23.723Z,8.47
2018-03-06T10:17:23.810Z,8.55
2018-03-06T10:18:23.847Z,8.59
2018-03-06T10:19:23.822Z,8.63
2018-03-06T10:20:23.742Z,8.67
2018-03-06T10:21:23.835Z,8.70
2018-03-06T10:22:23.743Z,8.75
2018-03-06T10:23:23.848Z,8.77
2018-03-06T10:24:23.753Z,8.80
2018-03-06T10:25:23.877Z,8.83
2018-03-06T10:26:23.759Z,8.85
2018-03-06T10:27:24.796Z,8.88
2018-03-06T10:28:23.762Z,8.88
2018-03-06T10:29:23.786Z,8.89
2018-03-06T10:30:23.765Z,8.90
2018-03-06T10:31:23.800Z,8.90
2018-03-06T10:32:23.771Z,8.90
2018-03-06T10:33:23.807Z,8.92
2018-03-06T10:34:23.790Z,8.93
2018-03-06T10:35:23.822Z,8.95
2018-03-06T10:36:26.631Z,8.96
2018-03-06T10:37:23.804Z,8.98
2018-03-06T10:38:23.793Z,8.99
2018-03-06T10:39:23.798Z,8.99
2018-03-06T10:40:23.968Z,8.99
2018-03-06T10:41:23.828Z,9.01
2018-03-06T10:42:23.883Z,9.03
2018-03-06T10:43:24.990Z,9.03
2018-03-06T10:44:23.893Z,9.04
2018-03-06T10:45:23.819Z,9.08
2018-03-06T10:46:23.844Z,9.11
2018-03-06T10:47:23.912Z,9.15
2018-03-06T10:48:25.581Z,9.18
2018-03-06T10:49:23.847Z,9.23
2018-03-06T10:50:25.596Z,9.26
2018-03-06T10:51:23.936Z,9.30
2018-03-06T10:52:23.847Z,9.37
2018-03-06T10:53:23.935Z,9.45
2018-03-06T10:54:24.596Z,9.50
2018-03-06T10:55:24.856Z,9.54
2018-03-06T10:56:23.965Z,9.59
2018-03-06T10:57:23.860Z,9.65
2018-03-06T10:58:23.877Z,9.67
2018-03-06T10:59:23.876Z,9.72
2018-03-06T11:00:24.917Z,9.77
2018-03-06T11:01:23.873Z,9.81
2018-03-06T11:02:23.927Z,9.84
2018-03-06T11:03:23.882Z,9.88
2018-03-06T11:04:23.962Z,9.90
2018-03-06T11:05:23.899Z,9.91
2018-03-06T11:06:24.946Z,9.94
2018-03-06T11:07:23.900Z,9.96
2018-03-06T11:08:24.053Z,10.01
2018-03-06T11:09:23.909Z,10.02
2018-03-06T11:10:24.981Z,10.05
2018-03-06T11:11:23.936Z,10.06
2018-03-06T11:12:26.023Z,10.09
2018-03-06T11:13:23.923Z,10.12
2018-03-06T11:14:24.007Z,10.17
2018-03-06T11:15:23.940Z,10.17
2018-03-06T11:16:44.989Z,10.17
2018-03-06T11:17:23.947Z,10.21
2018-03-06T11:18:23.976Z,10.24
2018-03-06T11:19:23.949Z,10.27
2018-03-06T11:20:25.098Z,10.28
2018-03-06T11:21:23.954Z,10.35
2018-03-06T11:22:24.085Z,10.36
2018-03-06T11:23:23.961Z,10.39
2018-03-06T11:24:26.196Z,10.42
2018-03-06T11:25:23.984Z,10.43
2018-03-06T11:26:35.691Z,10.42
2018-03-06T11:27:23.993Z,10.42
2018-03-06T11:28:25.161Z,10.41
2018-03-06T11:29:24.021Z,10.41
2018-03-06T11:30:24.142Z,10.39
2018-03-06T11:31:23.991Z,10.41
2018-03-06T11:32:24.159Z,10.43
2018-03-06T11:33:24.002Z,10.46
2018-03-06T11:34:24.204Z,10.52
2018-03-06T11:35:24.055Z,10.55
2018-03-06T11:36:24.148Z,10.58
2018-03-06T11:37:24.021Z,10.61
2018-03-06T11:38:24.169Z,10.64
2018-03-06T11:39:24.031Z,10.68
2018-03-06T11:40:24.178Z,10.73
2018-03-06T11:41:24.038Z,10.76
2018-03-06T11:42:24.194Z,10.79
2018-03-06T11:43:24.057Z,10.80
2018-03-06T11:44:24.212Z,10.83
2018-03-06T11:45:24.060Z,10.82
2018-03-06T11:46:24.120Z,10.82
2018-03-06T11:47:24.103Z,10.78
2018-03-06T11:48:24.165Z,10.76
2018-03-06T11:49:24.076Z,10.76
2018-03-06T11:50:24.139Z,10.79
2018-03-06T11:51:24.110Z,10.80
2018-03-06T11:52:24.109Z,10.85
2018-03-06T11:53:24.109Z,10.86
2018-03-06T11:54:24.121Z,10.90
2018-03-06T11:55:24.103Z,10.91
2018-03-06T11:56:24.162Z,10.94
2018-03-06T11:57:24.128Z,10.97
2018-03-06T11:58:24.156Z,11.00
2018-03-06T11:59:24.126Z,11.01
2018-03-06T12:00:24.164Z,11.01
2018-03-06T12:01:24.135Z,11.05
2018-03-06T12:02:24.180Z,11.11
2018-03-06T12:03:24.143Z,11.12
2018-03-06T12:04:24.307Z,11.15
2018-03-06T12:05:24.162Z,11.18
2018-03-06T12:06:24.206Z,11.19
2018-03-06T12:07:24.156Z,11.20
2018-03-06T12:08:25.239Z,11.19
2018-03-06T12:09:24.171Z,11.19
2018-03-06T12:10:24.256Z,11.20
2018-03-06T12:11:24.186Z,11.19
2018-03-06T12:12:24.245Z,11.19
2018-03-06T12:13:24.188Z,11.19
2018-03-06T12:14:24.251Z,11.22
2018-03-06T12:15:24.207Z,11.25
2018-03-06T12:16:24.313Z,11.30
2018-03-06T12:17:24.214Z,11.33
2018-03-06T12:18:24.285Z,11.38
2018-03-06T12:19:24.236Z,11.43
2018-03-06T12:20:24.296Z,11.48
2018-03-06T12:21:24.264Z,11.52
2018-03-06T12:22:24.322Z,11.55
2018-03-06T12:23:24.244Z,11.59
2018-03-06T12:24:24.320Z,11.62
2018-03-06T12:25:24.251Z,11.66
2018-03-06T12:26:24.332Z,11.67
2018-03-06T12:27:24.263Z,11.70
2018-03-06T12:28:24.350Z,11.70
2018-03-06T12:29:24.305Z,11.71
2018-03-06T12:30:24.399Z,11.73
2018-03-06T12:31:24.293Z,11.76
2018-03-06T12:32:24.367Z,11.77
2018-03-06T12:33:24.308Z,11.80
2018-03-06T12:34:24.387Z,11.85
2018-03-06T12:35:24.318Z,11.89
2018-03-06T12:36:24.394Z,11.95
2018-03-06T12:37:24.336Z,11.99
2018-03-06T12:38:24.408Z,12.04
2018-03-06T12:39:24.329Z,12.07
2018-03-06T12:40:24.454Z,12.10
2018-03-06T12:41:24.338Z,12.11
2018-03-06T12:42:24.437Z,12.14
2018-03-06T12:43:24.340Z,12.15
2018-03-06T12:44:24.488Z,12.17
2018-03-06T12:45:24.360Z,12.22
2018-03-06T12:46:24.465Z,12.26
2018-03-06T12:47:24.365Z,12.28
2018-03-06T12:48:24.479Z,12.30
2018-03-06T12:49:24.379Z,12.32
2018-03-06T12:50:24.490Z,12.33
2018-03-06T12:51:24.384Z,12.33
2018-03-06T12:52:24.501Z,12.32
2018-03-06T12:53:24.396Z,12.32
2018-03-06T12:54:24.515Z,12.35
2018-03-06T12:55:24.416Z,12.33
2018-03-06T12:56:24.430Z,12.33
2018-03-06T12:57:24.468Z,12.36
2018-03-06T12:58:24.446Z,12.36
2018-03-06T12:59:24.511Z,12.35
2018-03-06T13:00:24.447Z,12.35
2018-03-06T13:01:24.516Z,12.33
2018-03-06T13:02:24.456Z,12.32
2018-03-06T13:03:24.450Z,12.29
2018-03-06T13:04:24.469Z,12.29